Ko Samui, Thaïlande

15:24 ICT le 07 février 2016 (GMT +0700)
Samui | | Change Station
CLOSE
Current Station
Aéroport
Location: Samui,
Altitude: 66 ft
Stations météo à proximité

Alt. 66 ft 9.55 °N, 100.06 °E | Updated 24 minutes ago

Partly Cloudy
Partiellement nuageux
81 ° F
Paraît 84 ° F
N
17
Vent Variable Vent de NNE

Aujourd'hui
Haut(e) -- | Bas -- ° F
--% Risque de précip.
Hier
Haut(e) -- | Bas -- ° F
Precip. -- pouce
Pression 29.95 pouce
Visibilité 3.1 Miles terrestres
Nuages Peu 2000 ft
indice de chaleur 84 ° F
Point de rosée 70 ° F
Humidité 70%
Précipitations 0.00 pouce
Profondeur de la couche neigeuse Non disponible.
6:41 AM 6:26 PM
Lune descendante, 2% visible
METAR VTSM 070800Z 03015KT 5000 BR FEW020 27/21 Q1014 A2994
Pression 29.95 pouce
Visibilité 3.1 Miles terrestres
Nuages Peu 2000 ft
indice de chaleur 84 ° F
Point de rosée 70 ° F
Humidité 70%
Précipitations 0.00 pouce
Profondeur de la couche neigeuse Non disponible.
6:41 AM 6:26 PM
Lune descendante, 2% visible
METAR VTSM 070800Z 03015KT 5000 BR FEW020 27/21 Q1014 A2994

10-Day Weather Forecast

No radar image for this location.
×

Almanac

Astronomie

Feb. 07, 2016 Lever Coucher
Temps réel
Crépuscule civil
Crépuscule nautique
Crépuscule astronomique
Lune
Durée de lumière visible
Longueur du jour
Tomorrow will be .
, % of the Moon is Illuminated

Extrêmes aujourd'hui

Country Highs Country Lows

Community

WunderPhotos

Upload Photos

1,891,171 Photos téléchargées !

WunderBlog® & News

Nearby

Qualité de l'air

  Qualité de l'air Indice de la qualité de l'air Polluant
Not available.

Épaisseur de neige

Station Depth Altitude

Activité sismique

Ville Distance Mag. Time & Date
Minimum magnitude displayed is 2.5.

Températures des eaux côtières

Lieu Température

Stations

Stations météo à proximité

Emplacement de la station Température Refroidissement éolien Point de rosée Humidité Vent Precip. Alt. Mise à jour Type